sensor_id;sensor_type;location;lat;lon;timestamp;P1;durP1;ratioP1;P2;durP2;ratioP2
44606;SDS011;30315;46.072;14.474;2022-08-02T00:00:11;2.38;;;2.00;;
44606;SDS011;30315;46.072;14.474;2022-08-02T00:02:43;2.10;;;1.90;;
44606;SDS011;30315;46.072;14.474;2022-08-02T00:05:12;2.30;;;2.10;;
44606;SDS011;30315;46.072;14.474;2022-08-02T00:07:39;2.28;;;2.17;;
44606;SDS011;30315;46.072;14.474;2022-08-02T00:10:07;2.42;;;1.90;;
44606;SDS011;30315;46.072;14.474;2022-08-02T00:12:36;3.75;;;2.05;;
44606;SDS011;30315;46.072;14.474;2022-08-02T00:15:05;2.05;;;1.92;;
44606;SDS011;30315;46.072;14.474;2022-08-02T00:17:32;2.20;;;2.05;;
44606;SDS011;30315;46.072;14.474;2022-08-02T00:19:59;2.83;;;2.10;;
44606;SDS011;30315;46.072;14.474;2022-08-02T00:22:27;2.30;;;2.10;;
44606;SDS011;30315;46.072;14.474;2022-08-02T00:24:56;3.10;;;2.65;;
44606;SDS011;30315;46.072;14.474;2022-08-02T00:27:23;2.95;;;2.38;;
44606;SDS011;30315;46.072;14.474;2022-08-02T00:29:50;3.72;;;2.22;;
44606;SDS011;30315;46.072;14.474;2022-08-02T00:34:47;2.00;;;1.90;;
44606;SDS011;30315;46.072;14.474;2022-08-02T00:37:15;1.85;;;1.75;;
44606;SDS011;30315;46.072;14.474;2022-08-02T00:39:42;2.42;;;1.58;;
44606;SDS011;30315;46.072;14.474;2022-08-02T00:42:09;2.80;;;1.90;;
44606;SDS011;30315;46.072;14.474;2022-08-02T00:44:39;1.80;;;1.70;;
44606;SDS011;30315;46.072;14.474;2022-08-02T00:47:07;3.72;;;2.22;;
44606;SDS011;30315;46.072;14.474;2022-08-02T00:49:34;2.22;;;1.90;;
44606;SDS011;30315;46.072;14.474;2022-08-02T00:52:02;2.30;;;2.20;;
44606;SDS011;30315;46.072;14.474;2022-08-02T00:54:29;4.00;;;2.20;;
44606;SDS011;30315;46.072;14.474;2022-08-02T00:56:56;2.70;;;2.50;;
44606;SDS011;30315;46.072;14.474;2022-08-02T00:59:23;2.38;;;2.28;;
44606;SDS011;30315;46.072;14.474;2022-08-02T01:01:50;2.65;;;2.20;;
44606;SDS011;30315;46.072;14.474;2022-08-02T01:04:24;3.20;;;2.10;;
44606;SDS011;30315;46.072;14.474;2022-08-02T01:07:00;2.15;;;2.05;;
44606;SDS011;30315;46.072;14.474;2022-08-02T01:09:42;2.58;;;2.38;;
44606;SDS011;30315;46.072;14.474;2022-08-02T01:12:11;2.38;;;2.17;;
44606;SDS011;30315;46.072;14.474;2022-08-02T01:14:40;4.22;;;2.10;;
44606;SDS011;30315;46.072;14.474;2022-08-02T01:17:58;2.15;;;2.05;;
44606;SDS011;30315;46.072;14.474;2022-08-02T01:20:30;1.83;;;1.73;;
44606;SDS011;30315;46.072;14.474;2022-08-02T01:26:03;2.35;;;2.13;;
44606;SDS011;30315;46.072;14.474;2022-08-02T01:28:57;2.50;;;2.30;;
44606;SDS011;30315;46.072;14.474;2022-08-02T01:34:41;3.08;;;2.00;;
44606;SDS011;30315;46.072;14.474;2022-08-02T01:37:14;2.43;;;2.23;;
44606;SDS011;30315;46.072;14.474;2022-08-02T01:39:46;2.88;;;2.30;;
44606;SDS011;30315;46.072;14.474;2022-08-02T01:42:17;2.30;;;2.20;;
44606;SDS011;30315;46.072;14.474;2022-08-02T01:44:46;2.65;;;2.40;;
44606;SDS011;30315;46.072;14.474;2022-08-02T01:47:17;5.25;;;2.20;;
44606;SDS011;30315;46.072;14.474;2022-08-02T01:49:49;2.30;;;2.10;;
44606;SDS011;30315;46.072;14.474;2022-08-02T01:52:18;2.17;;;2.08;;
44606;SDS011;30315;46.072;14.474;2022-08-02T01:54:51;2.10;;;2.00;;
44606;SDS011;30315;46.072;14.474;2022-08-02T01:57:44;2.92;;;1.90;;
44606;SDS011;30315;46.072;14.474;2022-08-02T02:00:16;2.33;;;2.10;;
44606;SDS011;30315;46.072;14.474;2022-08-02T02:02:45;2.47;;;2.20;;
44606;SDS011;30315;46.072;14.474;2022-08-02T02:05:15;4.93;;;2.17;;
44606;SDS011;30315;46.072;14.474;2022-08-02T02:07:44;2.60;;;2.40;;
44606;SDS011;30315;46.072;14.474;2022-08-02T02:10:15;2.17;;;2.00;;
44606;SDS011;30315;46.072;14.474;2022-08-02T02:15:34;2.20;;;1.90;;
44606;SDS011;30315;46.072;14.474;2022-08-02T02:18:10;2.08;;;1.98;;
44606;SDS011;30315;46.072;14.474;2022-08-02T02:20:42;2.95;;;2.30;;
44606;SDS011;30315;46.072;14.474;2022-08-02T02:23:10;2.90;;;1.95;;
44606;SDS011;30315;46.072;14.474;2022-08-02T02:25:42;2.10;;;2.00;;
44606;SDS011;30315;46.072;14.474;2022-08-02T02:30:59;1.98;;;1.88;;
44606;SDS011;30315;46.072;14.474;2022-08-02T02:33:48;2.15;;;1.95;;
44606;SDS011;30315;46.072;14.474;2022-08-02T02:36:18;1.98;;;1.83;;
44606;SDS011;30315;46.072;14.474;2022-08-02T02:38:47;1.70;;;1.60;;
44606;SDS011;30315;46.072;14.474;2022-08-02T02:43:44;1.85;;;1.75;;
44606;SDS011;30315;46.072;14.474;2022-08-02T02:46:12;2.00;;;1.77;;
44606;SDS011;30315;46.072;14.474;2022-08-02T02:48:42;1.60;;;1.50;;
44606;SDS011;30315;46.072;14.474;2022-08-02T02:51:10;2.33;;;1.92;;
44606;SDS011;30315;46.072;14.474;2022-08-02T02:53:40;1.70;;;1.60;;
44606;SDS011;30315;46.072;14.474;2022-08-02T02:56:28;3.63;;;2.20;;
44606;SDS011;30315;46.072;14.474;2022-08-02T02:58:56;1.70;;;1.60;;
44606;SDS011;30315;46.072;14.474;2022-08-02T03:01:25;2.03;;;1.60;;
44606;SDS011;30315;46.072;14.474;2022-08-02T03:04:13;2.55;;;1.77;;
44606;SDS011;30315;46.072;14.474;2022-08-02T03:06:41;2.28;;;1.80;;
44606;SDS011;30315;46.072;14.474;2022-08-02T03:09:09;2.45;;;2.00;;
44606;SDS011;30315;46.072;14.474;2022-08-02T03:11:37;1.83;;;1.73;;
44606;SDS011;30315;46.072;14.474;2022-08-02T03:14:07;1.90;;;1.80;;
44606;SDS011;30315;46.072;14.474;2022-08-02T03:16:43;2.53;;;1.90;;
44606;SDS011;30315;46.072;14.474;2022-08-02T03:19:13;2.00;;;1.80;;
44606;SDS011;30315;46.072;14.474;2022-08-02T03:21:41;2.22;;;2.13;;
44606;SDS011;30315;46.072;14.474;2022-08-02T03:24:09;3.40;;;2.30;;
44606;SDS011;30315;46.072;14.474;2022-08-02T03:26:36;2.42;;;2.22;;
44606;SDS011;30315;46.072;14.474;2022-08-02T03:29:04;2.25;;;2.10;;
44606;SDS011;30315;46.072;14.474;2022-08-02T03:31:35;2.17;;;1.85;;
44606;SDS011;30315;46.072;14.474;2022-08-02T03:34:06;2.42;;;2.10;;
44606;SDS011;30315;46.072;14.474;2022-08-02T03:36:34;2.65;;;2.03;;
44606;SDS011;30315;46.072;14.474;2022-08-02T03:39:02;3.58;;;2.25;;
44606;SDS011;30315;46.072;14.474;2022-08-02T03:41:30;2.45;;;2.30;;
44606;SDS011;30315;46.072;14.474;2022-08-02T03:43:58;2.38;;;2.08;;
44606;SDS011;30315;46.072;14.474;2022-08-02T03:46:26;5.75;;;2.40;;
44606;SDS011;30315;46.072;14.474;2022-08-02T03:48:53;2.72;;;1.90;;
44606;SDS011;30315;46.072;14.474;2022-08-02T03:51:21;2.03;;;1.73;;
44606;SDS011;30315;46.072;14.474;2022-08-02T03:53:49;2.20;;;2.10;;
44606;SDS011;30315;46.072;14.474;2022-08-02T03:56:16;2.78;;;1.83;;
44606;SDS011;30315;46.072;14.474;2022-08-02T03:58:44;3.50;;;1.85;;
44606;SDS011;30315;46.072;14.474;2022-08-02T04:01:14;2.25;;;1.88;;
44606;SDS011;30315;46.072;14.474;2022-08-02T04:03:42;2.10;;;1.90;;
44606;SDS011;30315;46.072;14.474;2022-08-02T04:06:09;3.38;;;2.00;;
44606;SDS011;30315;46.072;14.474;2022-08-02T04:08:36;2.70;;;2.08;;
44606;SDS011;30315;46.072;14.474;2022-08-02T04:11:04;2.22;;;2.03;;
44606;SDS011;30315;46.072;14.474;2022-08-02T04:13:50;2.35;;;2.15;;
44606;SDS011;30315;46.072;14.474;2022-08-02T04:16:30;3.28;;;1.85;;
44606;SDS011;30315;46.072;14.474;2022-08-02T04:19:08;2.20;;;2.10;;
44606;SDS011;30315;46.072;14.474;2022-08-02T04:21:40;3.50;;;2.33;;
44606;SDS011;30315;46.072;14.474;2022-08-02T04:24:27;3.58;;;2.03;;
44606;SDS011;30315;46.072;14.474;2022-08-02T04:26:57;3.20;;;2.35;;
44606;SDS011;30315;46.072;14.474;2022-08-02T04:29:45;2.38;;;2.20;;
44606;SDS011;30315;46.072;14.474;2022-08-02T04:32:14;2.35;;;2.25;;
44606;SDS011;30315;46.072;14.474;2022-08-02T04:34:42;2.70;;;2.50;;
44606;SDS011;30315;46.072;14.474;2022-08-02T04:37:30;3.78;;;2.38;;
44606;SDS011;30315;46.072;14.474;2022-08-02T04:39:58;2.38;;;1.70;;
44606;SDS011;30315;46.072;14.474;2022-08-02T04:42:25;2.30;;;1.70;;
44606;SDS011;30315;46.072;14.474;2022-08-02T04:44:52;1.60;;;1.50;;
44606;SDS011;30315;46.072;14.474;2022-08-02T04:47:20;1.88;;;1.77;;
44606;SDS011;30315;46.072;14.474;2022-08-02T04:50:07;1.90;;;1.80;;
44606;SDS011;30315;46.072;14.474;2022-08-02T04:52:34;3.55;;;2.05;;
44606;SDS011;30315;46.072;14.474;2022-08-02T04:55:01;2.42;;;1.67;;
44606;SDS011;30315;46.072;14.474;2022-08-02T04:57:29;3.33;;;1.80;;
44606;SDS011;30315;46.072;14.474;2022-08-02T05:02:45;2.17;;;1.70;;
44606;SDS011;30315;46.072;14.474;2022-08-02T05:05:13;1.50;;;1.40;;
44606;SDS011;30315;46.072;14.474;2022-08-02T05:07:41;1.52;;;1.42;;
44606;SDS011;30315;46.072;14.474;2022-08-02T05:10:08;1.77;;;1.67;;
44606;SDS011;30315;46.072;14.474;2022-08-02T05:12:38;1.85;;;1.58;;
44606;SDS011;30315;46.072;14.474;2022-08-02T05:15:06;4.45;;;2.10;;
44606;SDS011;30315;46.072;14.474;2022-08-02T05:17:38;1.70;;;1.60;;
44606;SDS011;30315;46.072;14.474;2022-08-02T05:20:13;2.20;;;2.00;;
44606;SDS011;30315;46.072;14.474;2022-08-02T05:22:44;1.98;;;1.83;;
44606;SDS011;30315;46.072;14.474;2022-08-02T05:25:11;2.20;;;2.00;;
44606;SDS011;30315;46.072;14.474;2022-08-02T05:27:39;2.10;;;2.00;;
44606;SDS011;30315;46.072;14.474;2022-08-02T05:30:06;2.08;;;1.90;;
44606;SDS011;30315;46.072;14.474;2022-08-02T05:32:34;3.08;;;2.15;;
44606;SDS011;30315;46.072;14.474;2022-08-02T05:35:07;4.40;;;2.10;;
44606;SDS011;30315;46.072;14.474;2022-08-02T05:37:34;5.47;;;2.10;;
44606;SDS011;30315;46.072;14.474;2022-08-02T05:40:02;5.32;;;2.17;;
44606;SDS011;30315;46.072;14.474;2022-08-02T05:42:38;3.13;;;1.98;;
44606;SDS011;30315;46.072;14.474;2022-08-02T05:45:05;2.58;;;2.30;;
44606;SDS011;30315;46.072;14.474;2022-08-02T05:47:32;5.18;;;2.10;;
44606;SDS011;30315;46.072;14.474;2022-08-02T05:49:59;3.35;;;1.75;;
44606;SDS011;30315;46.072;14.474;2022-08-02T05:52:31;4.40;;;1.95;;
44606;SDS011;30315;46.072;14.474;2022-08-02T05:55:11;2.45;;;1.92;;
44606;SDS011;30315;46.072;14.474;2022-08-02T06:00:29;1.98;;;1.77;;
44606;SDS011;30315;46.072;14.474;2022-08-02T06:03:03;2.40;;;2.10;;
44606;SDS011;30315;46.072;14.474;2022-08-02T06:05:46;3.13;;;2.55;;
44606;SDS011;30315;46.072;14.474;2022-08-02T06:08:32;4.18;;;2.50;;
44606;SDS011;30315;46.072;14.474;2022-08-02T06:13:43;1.77;;;1.67;;
44606;SDS011;30315;46.072;14.474;2022-08-02T06:16:12;2.20;;;2.10;;
44606;SDS011;30315;46.072;14.474;2022-08-02T06:18:40;2.58;;;1.60;;
44606;SDS011;30315;46.072;14.474;2022-08-02T06:21:08;2.35;;;2.15;;
44606;SDS011;30315;46.072;14.474;2022-08-02T06:23:56;2.65;;;1.77;;
44606;SDS011;30315;46.072;14.474;2022-08-02T06:26:27;3.35;;;1.83;;
44606;SDS011;30315;46.072;14.474;2022-08-02T06:28:55;2.00;;;1.55;;
44606;SDS011;30315;46.072;14.474;2022-08-02T06:31:23;3.50;;;1.70;;
44606;SDS011;30315;46.072;14.474;2022-08-02T06:33:50;1.40;;;1.30;;
44606;SDS011;30315;46.072;14.474;2022-08-02T06:36:23;1.70;;;1.52;;
44606;SDS011;30315;46.072;14.474;2022-08-02T06:39:58;3.47;;;2.10;;
44606;SDS011;30315;46.072;14.474;2022-08-02T06:42:02;1.38;;;1.27;;
44606;SDS011;30315;46.072;14.474;2022-08-02T06:44:43;1.50;;;1.40;;
44606;SDS011;30315;46.072;14.474;2022-08-02T06:47:16;1.30;;;1.20;;
44606;SDS011;30315;46.072;14.474;2022-08-02T06:49:43;4.10;;;1.40;;
44606;SDS011;30315;46.072;14.474;2022-08-02T06:52:18;1.38;;;1.27;;
44606;SDS011;30315;46.072;14.474;2022-08-02T06:54:54;1.40;;;1.30;;
44606;SDS011;30315;46.072;14.474;2022-08-02T06:57:22;3.10;;;1.83;;
44606;SDS011;30315;46.072;14.474;2022-08-02T06:59:49;2.33;;;1.70;;
44606;SDS011;30315;46.072;14.474;2022-08-02T07:02:16;7.10;;;1.50;;
44606;SDS011;30315;46.072;14.474;2022-08-02T07:04:43;2.25;;;1.95;;
44606;SDS011;30315;46.072;14.474;2022-08-02T07:07:10;1.70;;;1.60;;
44606;SDS011;30315;46.072;14.474;2022-08-02T07:09:37;1.90;;;1.80;;
44606;SDS011;30315;46.072;14.474;2022-08-02T07:12:21;2.00;;;1.77;;
44606;SDS011;30315;46.072;14.474;2022-08-02T07:14:48;7.22;;;2.22;;
44606;SDS011;30315;46.072;14.474;2022-08-02T07:17:15;2.17;;;1.92;;
44606;SDS011;30315;46.072;14.474;2022-08-02T07:19:42;2.03;;;1.88;;
44606;SDS011;30315;46.072;14.474;2022-08-02T07:22:09;2.00;;;1.80;;
44606;SDS011;30315;46.072;14.474;2022-08-02T07:24:38;2.03;;;1.92;;
44606;SDS011;30315;46.072;14.474;2022-08-02T07:27:06;2.72;;;1.90;;
44606;SDS011;30315;46.072;14.474;2022-08-02T07:29:38;1.90;;;1.80;;
44606;SDS011;30315;46.072;14.474;2022-08-02T07:32:11;3.63;;;1.85;;
44606;SDS011;30315;46.072;14.474;2022-08-02T07:34:39;2.50;;;2.30;;
44606;SDS011;30315;46.072;14.474;2022-08-02T07:37:08;2.35;;;2.05;;
44606;SDS011;30315;46.072;14.474;2022-08-02T07:39:55;2.15;;;1.90;;
44606;SDS011;30315;46.072;14.474;2022-08-02T07:42:22;2.30;;;2.10;;
44606;SDS011;30315;46.072;14.474;2022-08-02T07:44:50;1.83;;;1.73;;
44606;SDS011;30315;46.072;14.474;2022-08-02T07:47:17;2.67;;;2.15;;
44606;SDS011;30315;46.072;14.474;2022-08-02T07:49:44;2.65;;;2.00;;
44606;SDS011;30315;46.072;14.474;2022-08-02T07:52:11;3.40;;;2.15;;
44606;SDS011;30315;46.072;14.474;2022-08-02T07:54:39;1.70;;;1.60;;
44606;SDS011;30315;46.072;14.474;2022-08-02T07:57:06;1.77;;;1.67;;
44606;SDS011;30315;46.072;14.474;2022-08-02T07:59:33;2.35;;;2.15;;
44606;SDS011;30315;46.072;14.474;2022-08-02T08:02:00;3.38;;;1.85;;
44606;SDS011;30315;46.072;14.474;2022-08-02T08:04:27;2.13;;;2.00;;
44606;SDS011;30315;46.072;14.474;2022-08-02T08:06:53;3.50;;;2.20;;
44606;SDS011;30315;46.072;14.474;2022-08-02T08:09:21;2.20;;;2.00;;
44606;SDS011;30315;46.072;14.474;2022-08-02T08:11:48;3.25;;;2.60;;
44606;SDS011;30315;46.072;14.474;2022-08-02T08:14:15;4.43;;;2.20;;
44606;SDS011;30315;46.072;14.474;2022-08-02T08:16:42;2.00;;;1.80;;
44606;SDS011;30315;46.072;14.474;2022-08-02T08:19:09;2.60;;;2.03;;
44606;SDS011;30315;46.072;14.474;2022-08-02T08:21:36;3.47;;;1.65;;
44606;SDS011;30315;46.072;14.474;2022-08-02T08:24:03;2.55;;;1.90;;
44606;SDS011;30315;46.072;14.474;2022-08-02T08:26:30;3.22;;;1.88;;
44606;SDS011;30315;46.072;14.474;2022-08-02T08:28:57;3.22;;;1.50;;
44606;SDS011;30315;46.072;14.474;2022-08-02T08:31:25;2.03;;;1.83;;
44606;SDS011;30315;46.072;14.474;2022-08-02T08:33:52;1.70;;;1.60;;
44606;SDS011;30315;46.072;14.474;2022-08-02T08:36:20;1.88;;;1.77;;
44606;SDS011;30315;46.072;14.474;2022-08-02T08:38:47;1.70;;;1.60;;
44606;SDS011;30315;46.072;14.474;2022-08-02T08:41:18;1.50;;;1.40;;
44606;SDS011;30315;46.072;14.474;2022-08-02T08:43:46;3.00;;;2.60;;
44606;SDS011;30315;46.072;14.474;2022-08-02T08:46:28;2.03;;;1.80;;
44606;SDS011;30315;46.072;14.474;2022-08-02T08:49:00;1.70;;;1.60;;
44606;SDS011;30315;46.072;14.474;2022-08-02T08:51:35;1.73;;;1.63;;
44606;SDS011;30315;46.072;14.474;2022-08-02T08:54:04;1.85;;;1.70;;
44606;SDS011;30315;46.072;14.474;2022-08-02T08:56:33;1.88;;;1.40;;
44606;SDS011;30315;46.072;14.474;2022-08-02T08:59:01;1.60;;;1.50;;
44606;SDS011;30315;46.072;14.474;2022-08-02T09:01:29;1.50;;;1.40;;
44606;SDS011;30315;46.072;14.474;2022-08-02T09:04:15;2.40;;;1.80;;
44606;SDS011;30315;46.072;14.474;2022-08-02T09:06:43;1.38;;;1.27;;
44606;SDS011;30315;46.072;14.474;2022-08-02T09:09:10;1.55;;;1.45;;
44606;SDS011;30315;46.072;14.474;2022-08-02T09:11:37;1.65;;;1.55;;
44606;SDS011;30315;46.072;14.474;2022-08-02T09:14:04;1.50;;;1.40;;
44606;SDS011;30315;46.072;14.474;2022-08-02T09:16:39;1.40;;;1.30;;
44606;SDS011;30315;46.072;14.474;2022-08-02T09:19:21;1.60;;;1.50;;
44606;SDS011;30315;46.072;14.474;2022-08-02T09:22:00;2.30;;;1.70;;
44606;SDS011;30315;46.072;14.474;2022-08-02T09:24:31;1.50;;;1.40;;
44606;SDS011;30315;46.072;14.474;2022-08-02T09:27:18;1.25;;;1.15;;
44606;SDS011;30315;46.072;14.474;2022-08-02T09:29:52;1.80;;;1.70;;
44606;SDS011;30315;46.072;14.474;2022-08-02T09:32:42;2.28;;;1.70;;
44606;SDS011;30315;46.072;14.474;2022-08-02T09:35:12;1.50;;;1.40;;
44606;SDS011;30315;46.072;14.474;2022-08-02T09:37:40;3.42;;;1.60;;
44606;SDS011;30315;46.072;14.474;2022-08-02T09:40:13;2.25;;;1.77;;
44606;SDS011;30315;46.072;14.474;2022-08-02T09:42:57;1.70;;;1.60;;
44606;SDS011;30315;46.072;14.474;2022-08-02T09:45:28;1.85;;;1.75;;
44606;SDS011;30315;46.072;14.474;2022-08-02T09:48:06;1.85;;;1.75;;
44606;SDS011;30315;46.072;14.474;2022-08-02T09:50:34;2.10;;;1.90;;
44606;SDS011;30315;46.072;14.474;2022-08-02T09:53:02;2.08;;;1.98;;
44606;SDS011;30315;46.072;14.474;2022-08-02T09:55:30;3.33;;;1.92;;
44606;SDS011;30315;46.072;14.474;2022-08-02T09:57:57;5.88;;;2.08;;
44606;SDS011;30315;46.072;14.474;2022-08-02T10:00:54;1.75;;;1.65;;
44606;SDS011;30315;46.072;14.474;2022-08-02T10:03:24;2.88;;;1.90;;
44606;SDS011;30315;46.072;14.474;2022-08-02T10:06:09;1.55;;;1.45;;
44606;SDS011;30315;46.072;14.474;2022-08-02T10:08:36;1.63;;;1.40;;
44606;SDS011;30315;46.072;14.474;2022-08-02T10:11:03;1.85;;;1.33;;
44606;SDS011;30315;46.072;14.474;2022-08-02T10:13:31;1.30;;;1.20;;
44606;SDS011;30315;46.072;14.474;2022-08-02T10:18:28;2.78;;;1.70;;
44606;SDS011;30315;46.072;14.474;2022-08-02T10:21:09;1.38;;;1.38;;
44606;SDS011;30315;46.072;14.474;2022-08-02T10:23:42;1.85;;;1.70;;
44606;SDS011;30315;46.072;14.474;2022-08-02T10:26:14;1.50;;;1.40;;
44606;SDS011;30315;46.072;14.474;2022-08-02T10:28:43;2.05;;;1.50;;
44606;SDS011;30315;46.072;14.474;2022-08-02T10:31:15;2.95;;;1.30;;
44606;SDS011;30315;46.072;14.474;2022-08-02T10:33:46;1.42;;;1.40;;
44606;SDS011;30315;46.072;14.474;2022-08-02T10:36:15;1.48;;;1.30;;
44606;SDS011;30315;46.072;14.474;2022-08-02T10:38:44;1.48;;;1.15;;
44606;SDS011;30315;46.072;14.474;2022-08-02T10:41:12;1.90;;;1.30;;
44606;SDS011;30315;46.072;14.474;2022-08-02T10:43:40;1.52;;;1.27;;
44606;SDS011;30315;46.072;14.474;2022-08-02T10:49:06;1.58;;;1.45;;
44606;SDS011;30315;46.072;14.474;2022-08-02T10:54:41;1.42;;;1.33;;
44606;SDS011;30315;46.072;14.474;2022-08-02T10:57:17;1.65;;;1.60;;
44606;SDS011;30315;46.072;14.474;2022-08-02T10:59:47;1.98;;;1.77;;
44606;SDS011;30315;46.072;14.474;2022-08-02T11:02:32;1.88;;;1.70;;
44606;SDS011;30315;46.072;14.474;2022-08-02T11:05:06;1.05;;;0.95;;
44606;SDS011;30315;46.072;14.474;2022-08-02T11:07:37;1.50;;;1.40;;
44606;SDS011;30315;46.072;14.474;2022-08-02T11:21:24;1.95;;;1.45;;
44606;SDS011;30315;46.072;14.474;2022-08-02T11:23:53;1.58;;;1.48;;
44606;SDS011;30315;46.072;14.474;2022-08-02T11:28:55;2.67;;;1.40;;
44606;SDS011;30315;46.072;14.474;2022-08-02T11:31:22;1.83;;;1.73;;
44606;SDS011;30315;46.072;14.474;2022-08-02T11:33:49;1.73;;;1.63;;
44606;SDS011;30315;46.072;14.474;2022-08-02T11:36:18;3.03;;;1.67;;
44606;SDS011;30315;46.072;14.474;2022-08-02T11:38:48;2.15;;;1.38;;
44606;SDS011;30315;46.072;14.474;2022-08-02T11:41:21;1.60;;;1.50;;
44606;SDS011;30315;46.072;14.474;2022-08-02T11:44:08;3.58;;;1.52;;
44606;SDS011;30315;46.072;14.474;2022-08-02T11:46:36;1.77;;;1.67;;
44606;SDS011;30315;46.072;14.474;2022-08-02T11:49:16;1.50;;;1.40;;
44606;SDS011;30315;46.072;14.474;2022-08-02T11:54:31;1.63;;;1.52;;
44606;SDS011;30315;46.072;14.474;2022-08-02T12:00:17;4.50;;;1.58;;
44606;SDS011;30315;46.072;14.474;2022-08-02T12:02:45;1.77;;;1.42;;
44606;SDS011;30315;46.072;14.474;2022-08-02T12:05:17;3.10;;;1.63;;
44606;SDS011;30315;46.072;14.474;2022-08-02T12:07:45;1.80;;;1.70;;
44606;SDS011;30315;46.072;14.474;2022-08-02T12:10:14;1.95;;;1.33;;
44606;SDS011;30315;46.072;14.474;2022-08-02T12:12:48;2.85;;;1.45;;
44606;SDS011;30315;46.072;14.474;2022-08-02T12:15:30;2.05;;;1.20;;
44606;SDS011;30315;46.072;14.474;2022-08-02T12:18:03;1.92;;;1.60;;
44606;SDS011;30315;46.072;14.474;2022-08-02T12:20:53;1.40;;;1.30;;
44606;SDS011;30315;46.072;14.474;2022-08-02T12:23:21;1.70;;;1.60;;
44606;SDS011;30315;46.072;14.474;2022-08-02T12:26:04;1.20;;;1.20;;
44606;SDS011;30315;46.072;14.474;2022-08-02T12:28:41;1.25;;;1.20;;
44606;SDS011;30315;46.072;14.474;2022-08-02T12:31:09;1.23;;;1.23;;
44606;SDS011;30315;46.072;14.474;2022-08-02T12:33:48;1.33;;;1.27;;
44606;SDS011;30315;46.072;14.474;2022-08-02T12:36:24;1.40;;;1.30;;
44606;SDS011;30315;46.072;14.474;2022-08-02T12:38:59;2.03;;;1.23;;
44606;SDS011;30315;46.072;14.474;2022-08-02T12:41:27;1.38;;;1.30;;
44606;SDS011;30315;46.072;14.474;2022-08-02T12:43:58;1.63;;;1.35;;
44606;SDS011;30315;46.072;14.474;2022-08-02T12:46:25;1.08;;;1.08;;
44606;SDS011;30315;46.072;14.474;2022-08-02T12:48:53;1.40;;;1.30;;
44606;SDS011;30315;46.072;14.474;2022-08-02T12:51:40;1.45;;;1.10;;
44606;SDS011;30315;46.072;14.474;2022-08-02T12:54:28;1.77;;;1.67;;
44606;SDS011;30315;46.072;14.474;2022-08-02T12:57:10;3.28;;;1.50;;
44606;SDS011;30315;46.072;14.474;2022-08-02T12:59:39;2.35;;;1.48;;
44606;SDS011;30315;46.072;14.474;2022-08-02T13:02:08;1.20;;;1.20;;
44606;SDS011;30315;46.072;14.474;2022-08-02T13:04:37;1.45;;;1.35;;
44606;SDS011;30315;46.072;14.474;2022-08-02T13:07:05;1.33;;;1.23;;
44606;SDS011;30315;46.072;14.474;2022-08-02T13:09:36;1.58;;;1.50;;
44606;SDS011;30315;46.072;14.474;2022-08-02T13:12:05;2.10;;;1.27;;
44606;SDS011;30315;46.072;14.474;2022-08-02T13:14:33;1.50;;;1.40;;
44606;SDS011;30315;46.072;14.474;2022-08-02T13:17:07;2.03;;;1.70;;
44606;SDS011;30315;46.072;14.474;2022-08-02T13:19:37;1.50;;;1.40;;
44606;SDS011;30315;46.072;14.474;2022-08-02T13:22:04;2.00;;;1.25;;
44606;SDS011;30315;46.072;14.474;2022-08-02T13:24:35;1.48;;;1.38;;
44606;SDS011;30315;46.072;14.474;2022-08-02T13:27:22;1.45;;;1.35;;
44606;SDS011;30315;46.072;14.474;2022-08-02T13:29:50;1.35;;;1.25;;
44606;SDS011;30315;46.072;14.474;2022-08-02T13:32:26;1.52;;;1.42;;
44606;SDS011;30315;46.072;14.474;2022-08-02T13:34:55;1.40;;;1.30;;
44606;SDS011;30315;46.072;14.474;2022-08-02T13:37:23;1.60;;;1.50;;
44606;SDS011;30315;46.072;14.474;2022-08-02T13:39:51;1.45;;;1.35;;
44606;SDS011;30315;46.072;14.474;2022-08-02T13:42:42;1.80;;;1.70;;
44606;SDS011;30315;46.072;14.474;2022-08-02T13:45:10;2.13;;;1.40;;
44606;SDS011;30315;46.072;14.474;2022-08-02T13:47:43;1.48;;;1.40;;
44606;SDS011;30315;46.072;14.474;2022-08-02T13:50:30;3.67;;;1.65;;
44606;SDS011;30315;46.072;14.474;2022-08-02T13:52:58;2.10;;;1.60;;
44606;SDS011;30315;46.072;14.474;2022-08-02T13:55:25;1.67;;;1.58;;
44606;SDS011;30315;46.072;14.474;2022-08-02T13:57:56;1.33;;;1.33;;
44606;SDS011;30315;46.072;14.474;2022-08-02T14:00:24;1.88;;;1.60;;
44606;SDS011;30315;46.072;14.474;2022-08-02T14:03:01;1.50;;;1.40;;
44606;SDS011;30315;46.072;14.474;2022-08-02T14:05:30;1.58;;;1.48;;
44606;SDS011;30315;46.072;14.474;2022-08-02T14:08:13;1.70;;;1.60;;
44606;SDS011;30315;46.072;14.474;2022-08-02T14:10:46;1.50;;;1.40;;
44606;SDS011;30315;46.072;14.474;2022-08-02T14:13:14;1.40;;;1.30;;
44606;SDS011;30315;46.072;14.474;2022-08-02T14:15:42;1.50;;;1.40;;
44606;SDS011;30315;46.072;14.474;2022-08-02T14:18:10;1.40;;;1.30;;
44606;SDS011;30315;46.072;14.474;2022-08-02T14:20:37;1.50;;;1.40;;
44606;SDS011;30315;46.072;14.474;2022-08-02T14:23:05;2.33;;;2.22;;
44606;SDS011;30315;46.072;14.474;2022-08-02T14:25:32;2.35;;;2.25;;
44606;SDS011;30315;46.072;14.474;2022-08-02T14:27:59;3.40;;;2.60;;
44606;SDS011;30315;46.072;14.474;2022-08-02T14:30:27;2.40;;;2.20;;
44606;SDS011;30315;46.072;14.474;2022-08-02T14:32:54;2.33;;;2.13;;
44606;SDS011;30315;46.072;14.474;2022-08-02T14:35:21;2.50;;;2.30;;
44606;SDS011;30315;46.072;14.474;2022-08-02T14:37:48;2.60;;;2.40;;
44606;SDS011;30315;46.072;14.474;2022-08-02T14:40:15;3.25;;;2.40;;
44606;SDS011;30315;46.072;14.474;2022-08-02T14:42:57;2.50;;;2.30;;
44606;SDS011;30315;46.072;14.474;2022-08-02T14:45:24;2.13;;;2.00;;
44606;SDS011;30315;46.072;14.474;2022-08-02T14:48:06;1.77;;;1.67;;
44606;SDS011;30315;46.072;14.474;2022-08-02T14:50:34;1.70;;;1.52;;
44606;SDS011;30315;46.072;14.474;2022-08-02T14:53:01;1.60;;;1.50;;
44606;SDS011;30315;46.072;14.474;2022-08-02T14:55:28;2.65;;;1.40;;
44606;SDS011;30315;46.072;14.474;2022-08-02T14:57:54;1.70;;;1.60;;
44606;SDS011;30315;46.072;14.474;2022-08-02T15:00:21;1.50;;;1.40;;
44606;SDS011;30315;46.072;14.474;2022-08-02T15:02:48;1.65;;;1.55;;
44606;SDS011;30315;46.072;14.474;2022-08-02T15:05:15;1.63;;;1.52;;
44606;SDS011;30315;46.072;14.474;2022-08-02T15:07:42;1.95;;;1.85;;
44606;SDS011;30315;46.072;14.474;2022-08-02T15:10:14;2.38;;;1.48;;
44606;SDS011;30315;46.072;14.474;2022-08-02T15:12:44;1.50;;;1.40;;
44606;SDS011;30315;46.072;14.474;2022-08-02T15:15:11;2.08;;;1.40;;
44606;SDS011;30315;46.072;14.474;2022-08-02T15:17:37;1.98;;;1.88;;
44606;SDS011;30315;46.072;14.474;2022-08-02T15:20:05;2.58;;;2.38;;
44606;SDS011;30315;46.072;14.474;2022-08-02T15:22:50;2.03;;;1.92;;
44606;SDS011;30315;46.072;14.474;2022-08-02T15:25:17;1.60;;;1.50;;
44606;SDS011;30315;46.072;14.474;2022-08-02T15:27:44;1.52;;;1.42;;
44606;SDS011;30315;46.072;14.474;2022-08-02T15:30:11;1.48;;;1.48;;
44606;SDS011;30315;46.072;14.474;2022-08-02T15:32:38;1.40;;;1.30;;
44606;SDS011;30315;46.072;14.474;2022-08-02T15:35:18;1.75;;;1.65;;
44606;SDS011;30315;46.072;14.474;2022-08-02T15:37:45;1.40;;;1.35;;
44606;SDS011;30315;46.072;14.474;2022-08-02T15:40:12;2.05;;;1.40;;
44606;SDS011;30315;46.072;14.474;2022-08-02T15:42:39;1.40;;;1.30;;
44606;SDS011;30315;46.072;14.474;2022-08-02T15:45:06;1.50;;;1.40;;
44606;SDS011;30315;46.072;14.474;2022-08-02T15:47:40;2.08;;;1.40;;
44606;SDS011;30315;46.072;14.474;2022-08-02T15:50:16;1.50;;;1.40;;